createdAt,value
2023-04-02T00:00:21.419Z,13.88
2023-04-02T00:02:57.748Z,14.52
2023-04-02T00:05:51.455Z,13.93
2023-04-02T00:08:29.573Z,12.80
2023-04-02T00:11:02.823Z,13.68
2023-04-02T00:13:35.157Z,12.30
2023-04-02T00:16:04.703Z,10.48
2023-04-02T00:18:35.368Z,11.18
2023-04-02T00:21:13.750Z,12.32
2023-04-02T00:23:44.607Z,11.23
2023-04-02T00:26:30.520Z,11.18
2023-04-02T00:29:02.323Z,9.25
2023-04-02T00:31:33.617Z,10.40
2023-04-02T00:34:04.752Z,9.85
2023-04-02T00:36:35.848Z,10.23
2023-04-02T00:39:14.954Z,10.65
2023-04-02T00:41:47.213Z,9.00
2023-04-02T00:44:22.135Z,7.90
2023-04-02T00:46:51.298Z,9.50
2023-04-02T00:49:30.715Z,10.25
2023-04-02T00:52:03.437Z,10.93
2023-04-02T00:54:34.148Z,10.60
2023-04-02T00:57:03.011Z,10.45
2023-04-02T00:59:33.102Z,9.90
2023-04-02T01:02:22.453Z,9.00
2023-04-02T01:04:54.681Z,12.05
2023-04-02T01:07:35.908Z,10.32
2023-04-02T01:10:19.390Z,10.82
2023-04-02T01:12:59.057Z,9.60
2023-04-02T01:15:32.598Z,10.45
2023-04-02T01:18:18.656Z,10.27
2023-04-02T01:21:19.542Z,10.45
2023-04-02T01:24:00.017Z,13.70
2023-04-02T01:26:47.999Z,11.95
2023-04-02T01:29:20.727Z,11.98
2023-04-02T01:31:50.398Z,12.98
2023-04-02T01:34:20.966Z,10.90
2023-04-02T01:37:02.180Z,11.38
2023-04-02T01:39:41.743Z,9.38
2023-04-02T01:42:16.621Z,9.98
2023-04-02T01:44:50.431Z,11.23
2023-04-02T01:47:20.859Z,9.93
2023-04-02T01:49:49.294Z,12.23
2023-04-02T01:52:21.121Z,13.32
2023-04-02T01:54:49.441Z,10.57
2023-04-02T01:57:17.754Z,12.45
2023-04-02T01:59:47.479Z,11.30
2023-04-02T02:02:19.845Z,11.00
2023-04-02T02:04:47.975Z,13.68
2023-04-02T02:07:17.874Z,10.02
2023-04-02T02:09:46.609Z,10.80
2023-04-02T02:12:16.380Z,10.93
2023-04-02T02:14:49.838Z,9.40
2023-04-02T02:17:21.604Z,11.88
2023-04-02T02:19:53.662Z,11.07
2023-04-02T02:22:28.510Z,12.73
2023-04-02T02:24:58.621Z,13.25
2023-04-02T02:27:50.718Z,12.02
2023-04-02T02:30:23.424Z,10.07
2023-04-02T02:32:57.524Z,14.02
2023-04-02T02:35:32.020Z,14.23
2023-04-02T02:38:12.845Z,10.57
2023-04-02T02:40:46.269Z,13.40
2023-04-02T02:43:16.887Z,13.98
2023-04-02T02:45:48.432Z,11.85
2023-04-02T02:48:20.474Z,12.82
2023-04-02T02:50:49.126Z,13.48
2023-04-02T02:53:20.729Z,12.75
2023-04-02T02:55:51.960Z,13.10
2023-04-02T02:58:26.497Z,11.35
2023-04-02T03:00:56.599Z,10.25
2023-04-02T03:03:29.221Z,9.68
2023-04-02T03:06:02.241Z,10.80
2023-04-02T03:08:34.794Z,9.90
2023-04-02T03:13:36.751Z,7.93
2023-04-02T03:16:12.438Z,9.80
2023-04-02T03:18:47.299Z,8.82
2023-04-02T03:21:23.979Z,8.57
2023-04-02T03:23:56.591Z,7.95
2023-04-02T03:26:31.420Z,8.30
2023-04-02T03:29:03.899Z,9.43
2023-04-02T03:31:38.909Z,9.15
2023-04-02T03:34:14.700Z,8.20
2023-04-02T03:36:49.798Z,9.75
2023-04-02T03:39:23.908Z,10.38
2023-04-02T03:41:56.439Z,8.73
2023-04-02T03:44:29.091Z,10.15
2023-04-02T03:47:02.297Z,10.48
2023-04-02T03:49:35.494Z,10.13
2023-04-02T03:52:07.491Z,9.85
2023-04-02T03:54:35.841Z,10.13
2023-04-02T03:57:04.506Z,9.68
2023-04-02T03:59:40.866Z,11.05
2023-04-02T04:02:28.178Z,14.15
2023-04-02T04:04:58.180Z,12.45
2023-04-02T04:07:32.616Z,12.63
2023-04-02T04:10:02.266Z,16.17
2023-04-02T04:12:33.767Z,12.40
2023-04-02T04:15:07.697Z,13.55
2023-04-02T04:17:51.761Z,11.63
2023-04-02T04:20:23.277Z,11.98
2023-04-02T04:22:55.753Z,13.30
2023-04-02T04:25:29.539Z,13.00
2023-04-02T04:28:07.773Z,12.32
2023-04-02T04:30:45.300Z,13.68
2023-04-02T04:33:23.055Z,11.70
2023-04-02T04:35:55.875Z,9.27
2023-04-02T04:38:33.001Z,12.38
2023-04-02T04:41:06.723Z,12.98
2023-04-02T04:43:43.952Z,10.90
2023-04-02T04:46:16.112Z,10.40
2023-04-02T04:48:53.290Z,12.00
2023-04-02T04:51:25.360Z,11.63
2023-04-02T04:53:56.275Z,10.57
2023-04-02T04:56:27.731Z,9.73
2023-04-02T04:59:02.214Z,18.38
2023-04-02T05:01:38.227Z,8.77
2023-04-02T05:04:17.125Z,7.80
2023-04-02T05:06:53.207Z,8.60
2023-04-02T05:09:25.882Z,8.70
2023-04-02T05:11:57.127Z,9.45
2023-04-02T05:14:32.579Z,8.30
2023-04-02T05:17:07.298Z,8.98
2023-04-02T05:19:44.429Z,7.80
2023-04-02T05:22:23.676Z,7.35
2023-04-02T05:25:00.685Z,7.43
2023-04-02T05:27:37.523Z,8.13
2023-04-02T05:30:14.207Z,7.93
2023-04-02T05:32:47.200Z,8.07
2023-04-02T05:35:20.851Z,6.13
2023-04-02T05:37:51.464Z,7.80
2023-04-02T05:40:27.702Z,10.45
2023-04-02T05:42:56.804Z,8.63
2023-04-02T05:45:31.801Z,7.75
2023-04-02T05:48:03.993Z,8.77
2023-04-02T05:50:37.499Z,7.07
2023-04-02T05:53:13.855Z,6.55
2023-04-02T05:55:50.557Z,9.20
2023-04-02T06:01:07.777Z,7.05
2023-04-02T06:03:46.568Z,9.20
2023-04-02T06:06:27.048Z,8.17
2023-04-02T06:09:00.239Z,7.20
2023-04-02T06:11:32.641Z,5.63
2023-04-02T06:14:01.202Z,4.10
2023-04-02T06:16:31.995Z,6.20
2023-04-02T06:19:00.133Z,5.53
2023-04-02T06:21:29.646Z,6.07
2023-04-02T06:24:03.540Z,5.95
2023-04-02T06:26:35.289Z,5.28
2023-04-02T06:29:08.200Z,5.70
2023-04-02T06:31:40.214Z,5.43
2023-04-02T06:34:16.334Z,5.22
2023-04-02T06:36:46.524Z,5.78
2023-04-02T06:39:19.865Z,6.00
2023-04-02T06:41:48.240Z,4.18
2023-04-02T06:44:20.040Z,7.18
2023-04-02T06:46:52.451Z,8.85
2023-04-02T06:49:24.974Z,4.68
2023-04-02T06:51:56.332Z,7.45
2023-04-02T06:54:24.576Z,5.75
2023-04-02T06:56:56.350Z,6.97
2023-04-02T06:59:24.758Z,6.05
2023-04-02T07:01:57.270Z,6.47
2023-04-02T07:04:27.607Z,6.85
2023-04-02T07:06:57.223Z,5.68
2023-04-02T07:09:25.927Z,8.93
2023-04-02T07:11:54.012Z,9.32
2023-04-02T07:14:22.114Z,8.30
2023-04-02T07:16:50.361Z,8.52
2023-04-02T07:19:21.286Z,7.38
2023-04-02T07:21:49.444Z,5.18
2023-04-02T07:24:18.870Z,6.47
2023-04-02T07:26:48.305Z,6.93
2023-04-02T07:29:17.511Z,5.95
2023-04-02T07:31:45.722Z,5.45
2023-04-02T07:34:13.899Z,5.70
2023-04-02T07:36:42.321Z,4.97
2023-04-02T07:39:13.404Z,7.15
2023-04-02T07:41:54.453Z,3.75
2023-04-02T07:44:22.617Z,8.63
2023-04-02T07:46:51.198Z,6.43
2023-04-02T07:49:19.282Z,5.10
2023-04-02T07:51:47.883Z,9.93
2023-04-02T07:54:15.917Z,7.18
2023-04-02T07:56:46.248Z,5.53
2023-04-02T07:59:15.889Z,7.25
2023-04-02T08:01:43.970Z,6.88
2023-04-02T08:04:19.492Z,5.78
2023-04-02T08:06:48.337Z,9.13
2023-04-02T08:09:16.775Z,7.05
2023-04-02T08:11:46.644Z,5.70
2023-04-02T08:14:16.414Z,4.25
2023-04-02T08:16:46.984Z,5.53
2023-04-02T08:19:15.605Z,4.72
2023-04-02T08:21:50.037Z,8.55
2023-04-02T08:24:20.177Z,7.20
2023-04-02T08:26:49.001Z,4.88
2023-04-02T08:29:18.465Z,5.93
2023-04-02T08:31:46.581Z,5.18
2023-04-02T08:34:14.652Z,7.35
2023-04-02T08:36:45.602Z,9.15
2023-04-02T08:39:13.804Z,7.05
2023-04-02T08:41:46.977Z,7.05
2023-04-02T08:44:40.910Z,5.65
2023-04-02T08:47:10.964Z,6.57
2023-04-02T08:49:44.065Z,8.52
2023-04-02T08:52:21.987Z,8.90
2023-04-02T08:54:51.338Z,5.28
2023-04-02T08:57:28.547Z,5.72
2023-04-02T09:00:02.847Z,4.88
2023-04-02T09:02:38.821Z,5.35
2023-04-02T09:05:16.383Z,8.25
2023-04-02T09:07:44.528Z,6.45
2023-04-02T09:10:16.402Z,7.63
2023-04-02T09:12:47.222Z,6.70
2023-04-02T09:15:29.476Z,5.95
2023-04-02T09:18:01.255Z,8.07
2023-04-02T09:20:29.708Z,6.20
2023-04-02T09:22:58.999Z,6.95
2023-04-02T09:25:29.789Z,4.28
2023-04-02T09:28:01.751Z,7.22
2023-04-02T09:30:48.213Z,3.72
2023-04-02T09:33:19.387Z,6.05
2023-04-02T09:35:56.788Z,7.57
2023-04-02T09:38:29.146Z,5.72
2023-04-02T09:41:01.491Z,6.00
2023-04-02T09:43:31.280Z,6.50
2023-04-02T09:46:02.913Z,6.88
2023-04-02T09:48:35.397Z,5.68
2023-04-02T09:51:08.894Z,5.93
2023-04-02T09:53:40.519Z,5.63
2023-04-02T09:56:15.755Z,5.00
2023-04-02T09:58:45.635Z,5.53
2023-04-02T10:01:30.498Z,5.40
2023-04-02T10:04:00.051Z,6.20
2023-04-02T10:06:30.697Z,5.10
2023-04-02T10:08:59.423Z,7.68
2023-04-02T10:11:46.124Z,6.72
2023-04-02T10:14:20.230Z,7.88
2023-04-02T10:16:53.078Z,5.60
2023-04-02T10:19:30.070Z,4.28
2023-04-02T10:22:00.961Z,4.95
2023-04-02T10:24:30.131Z,4.13
2023-04-02T10:27:09.852Z,5.63
2023-04-02T10:29:58.303Z,4.28
2023-04-02T10:32:33.451Z,6.03
2023-04-02T10:35:04.685Z,8.30
2023-04-02T10:37:55.894Z,7.95
2023-04-02T10:40:29.822Z,7.20
2023-04-02T10:43:23.625Z,6.43
2023-04-02T10:45:57.867Z,6.78
2023-04-02T10:48:34.086Z,6.35
2023-04-02T10:51:07.936Z,5.40
2023-04-02T10:53:45.180Z,6.38
2023-04-02T10:56:15.518Z,3.63
2023-04-02T10:58:57.257Z,8.02
2023-04-02T11:01:29.388Z,4.25
2023-04-02T11:04:02.582Z,4.15
2023-04-02T11:06:34.032Z,5.47
2023-04-02T11:09:06.141Z,6.78
2023-04-02T11:11:39.891Z,4.70
2023-04-02T11:14:15.132Z,6.10
2023-04-02T11:16:44.863Z,5.43
2023-04-02T11:19:27.576Z,5.22
2023-04-02T11:22:00.991Z,9.80
2023-04-02T11:24:49.767Z,5.80
2023-04-02T11:27:24.312Z,4.40
2023-04-02T11:29:56.547Z,6.38
2023-04-02T11:32:35.770Z,7.78
2023-04-02T11:35:27.015Z,4.50
2023-04-02T11:37:56.575Z,9.98
2023-04-02T11:40:53.012Z,4.57
2023-04-02T11:43:53.000Z,5.32
2023-04-02T11:46:46.688Z,5.47
2023-04-02T11:49:40.862Z,4.28
2023-04-02T11:52:24.529Z,6.30
2023-04-02T11:55:24.459Z,5.72
2023-04-02T11:58:32.243Z,6.72
2023-04-02T12:01:40.463Z,4.78
2023-04-02T12:04:38.280Z,4.82
2023-04-02T12:07:26.862Z,6.38
2023-04-02T12:09:59.397Z,4.30
2023-04-02T12:12:33.602Z,4.63
2023-04-02T12:15:02.069Z,5.75
2023-04-02T12:17:32.710Z,5.78
2023-04-02T12:20:07.874Z,6.00
2023-04-02T12:22:39.648Z,4.95
2023-04-02T12:25:32.245Z,5.30
2023-04-02T12:28:17.851Z,4.85
2023-04-02T12:30:47.358Z,5.18
2023-04-02T12:33:27.824Z,5.50
2023-04-02T12:35:58.777Z,7.07
2023-04-02T12:38:28.424Z,5.97
2023-04-02T12:40:59.546Z,4.28
2023-04-02T12:43:29.295Z,6.35
2023-04-02T12:46:00.421Z,5.82
2023-04-02T12:48:29.602Z,5.57
2023-04-02T12:50:58.240Z,5.22
2023-04-02T12:53:34.595Z,6.45
2023-04-02T12:56:05.250Z,6.65
2023-04-02T12:58:36.933Z,5.60
2023-04-02T13:01:14.226Z,5.70
2023-04-02T13:03:42.620Z,5.47
2023-04-02T13:06:30.645Z,6.75
2023-04-02T13:08:59.941Z,5.40
2023-04-02T13:11:38.587Z,3.28
2023-04-02T13:14:09.044Z,4.65
2023-04-02T13:16:39.891Z,5.43
2023-04-02T13:19:21.041Z,4.75
2023-04-02T13:21:49.491Z,5.90
2023-04-02T13:24:19.111Z,5.18
2023-04-02T13:26:49.851Z,4.90
2023-04-02T13:29:25.202Z,3.80
2023-04-02T13:31:54.671Z,4.15
2023-04-02T13:34:22.833Z,5.18
2023-04-02T13:36:50.989Z,4.93
2023-04-02T13:39:20.882Z,6.07
2023-04-02T13:41:52.654Z,5.82
2023-04-02T13:44:23.719Z,4.30
2023-04-02T13:46:52.571Z,4.35
2023-04-02T13:49:20.923Z,2.72
2023-04-02T13:51:51.824Z,4.40
2023-04-02T13:54:25.776Z,4.22
2023-04-02T13:56:57.171Z,6.22
2023-04-02T13:59:26.058Z,2.88
2023-04-02T14:01:58.958Z,5.93
2023-04-02T14:04:30.798Z,5.55
2023-04-02T14:07:27.425Z,4.40
2023-04-02T14:10:06.406Z,4.72
2023-04-02T14:12:53.970Z,4.20
2023-04-02T14:15:40.694Z,6.40
2023-04-02T14:18:36.709Z,4.07
2023-04-02T14:21:14.525Z,4.95
2023-04-02T14:23:56.490Z,5.70
2023-04-02T14:26:39.498Z,7.32
2023-04-02T14:31:48.129Z,3.70
2023-04-02T14:34:29.230Z,4.57
2023-04-02T14:37:06.891Z,4.82
2023-04-02T14:39:46.115Z,3.95
2023-04-02T14:42:18.363Z,7.05
2023-04-02T14:44:53.351Z,4.45
2023-04-02T14:47:27.344Z,5.78
2023-04-02T14:50:01.646Z,3.33
2023-04-02T14:52:34.544Z,3.55
2023-04-02T14:57:36.529Z,4.75
2023-04-02T15:00:24.254Z,3.38
2023-04-02T15:02:58.670Z,5.28
2023-04-02T15:05:35.404Z,3.38
2023-04-02T15:08:08.218Z,4.88
2023-04-02T15:13:16.323Z,5.28
2023-04-02T15:15:50.459Z,4.38
2023-04-02T15:18:19.497Z,5.70
2023-04-02T15:20:55.016Z,5.32
2023-04-02T15:23:35.594Z,6.32
2023-04-02T15:26:12.417Z,4.55
2023-04-02T15:28:45.022Z,3.70
2023-04-02T15:31:16.540Z,4.97
2023-04-02T15:33:46.566Z,3.03
2023-04-02T15:36:45.880Z,3.88
2023-04-02T15:39:38.055Z,4.03
2023-04-02T15:42:16.170Z,6.72
2023-04-02T15:44:57.814Z,4.82
2023-04-02T15:47:37.820Z,2.60
2023-04-02T15:50:20.468Z,5.45
2023-04-02T15:52:55.881Z,3.22
2023-04-02T15:55:34.296Z,4.47
2023-04-02T15:58:25.705Z,4.57
2023-04-02T16:01:09.616Z,3.30
2023-04-02T16:04:03.191Z,7.50
2023-04-02T16:06:41.373Z,3.97
2023-04-02T16:09:23.452Z,6.53
2023-04-02T16:11:58.455Z,6.60
2023-04-02T16:14:30.224Z,4.60
2023-04-02T16:17:08.072Z,5.30
2023-04-02T16:19:50.420Z,4.40
2023-04-02T16:22:24.839Z,6.00
2023-04-02T16:25:01.034Z,5.18
2023-04-02T16:27:34.385Z,3.58
2023-04-02T16:30:19.005Z,4.32
2023-04-02T16:33:00.923Z,4.90
2023-04-02T16:35:43.505Z,4.88
2023-04-02T16:41:06.913Z,4.00
2023-04-02T16:43:47.187Z,4.45
2023-04-02T16:46:38.242Z,4.30
2023-04-02T16:49:17.719Z,5.43
2023-04-02T16:51:58.935Z,4.03
2023-04-02T16:54:34.813Z,7.07
2023-04-02T16:57:17.419Z,3.88
2023-04-02T16:59:57.705Z,3.90
2023-04-02T17:02:37.447Z,5.50
2023-04-02T17:05:15.960Z,4.20
2023-04-02T17:07:52.776Z,4.30
2023-04-02T17:10:30.829Z,6.82
2023-04-02T17:13:16.937Z,4.22
2023-04-02T17:15:50.931Z,5.97
2023-04-02T17:18:20.973Z,8.40
2023-04-02T17:20:49.552Z,4.20
2023-04-02T17:23:22.080Z,4.30
2023-04-02T17:25:55.182Z,4.65
2023-04-02T17:28:29.634Z,8.18
2023-04-02T17:31:01.254Z,4.05
2023-04-02T17:33:29.349Z,4.72
2023-04-02T17:36:10.921Z,4.03
2023-04-02T17:38:46.263Z,4.60
2023-04-02T17:41:20.742Z,3.72
2023-04-02T17:43:57.973Z,3.95
2023-04-02T17:46:36.172Z,4.68
2023-04-02T17:49:13.061Z,5.30
2023-04-02T17:51:47.437Z,4.47
2023-04-02T17:54:30.919Z,3.47
2023-04-02T17:57:18.396Z,3.40
2023-04-02T18:00:01.702Z,4.32
2023-04-02T18:02:43.237Z,4.50
2023-04-02T18:05:26.889Z,3.63
2023-04-02T18:08:08.062Z,5.32
2023-04-02T18:10:47.707Z,5.03
2023-04-02T18:13:25.872Z,5.43
2023-04-02T18:16:28.270Z,5.47
2023-04-02T18:19:11.786Z,6.13
2023-04-02T18:21:46.439Z,8.60
2023-04-02T18:24:34.414Z,3.30
2023-04-02T18:27:17.832Z,5.68
2023-04-02T18:29:57.659Z,4.90
2023-04-02T18:32:53.969Z,5.07
2023-04-02T18:35:26.549Z,6.97
2023-04-02T18:38:17.204Z,3.15
2023-04-02T18:41:05.829Z,4.93
2023-04-02T18:43:43.886Z,4.95
2023-04-02T18:46:23.401Z,5.68
2023-04-02T18:48:57.876Z,5.10
2023-04-02T18:51:27.791Z,3.40
2023-04-02T18:54:10.989Z,4.18
2023-04-02T18:56:41.658Z,5.90
2023-04-02T18:59:29.626Z,7.20
2023-04-02T19:02:01.431Z,6.07
2023-04-02T19:04:33.708Z,4.97
2023-04-02T19:07:06.153Z,5.97
2023-04-02T19:09:41.138Z,6.30
2023-04-02T19:12:16.623Z,8.18
2023-04-02T19:14:49.711Z,7.68
2023-04-02T19:17:28.401Z,5.80
2023-04-02T19:20:08.731Z,5.13
2023-04-02T19:22:43.342Z,6.35
2023-04-02T19:25:36.035Z,4.15
2023-04-02T19:28:09.473Z,6.07
2023-04-02T19:31:09.309Z,6.90
2023-04-02T19:33:46.563Z,5.80
2023-04-02T19:36:41.762Z,6.82
2023-04-02T19:39:34.818Z,5.38
2023-04-02T19:42:11.846Z,5.72
2023-04-02T19:44:45.652Z,7.53
2023-04-02T19:47:17.378Z,4.32
2023-04-02T19:49:46.108Z,10.63
2023-04-02T19:52:14.258Z,6.28
2023-04-02T19:54:42.308Z,11.13
2023-04-02T19:57:15.599Z,8.25
2023-04-02T19:59:43.943Z,9.40
2023-04-02T20:02:12.605Z,9.82
2023-04-02T20:04:49.850Z,8.43
2023-04-02T20:07:18.655Z,7.88
2023-04-02T20:09:46.681Z,9.43
2023-04-02T20:12:14.813Z,7.93
2023-04-02T20:14:45.449Z,6.95
2023-04-02T20:17:13.556Z,6.82
2023-04-02T20:19:43.095Z,8.70
2023-04-02T20:22:11.281Z,9.07
2023-04-02T20:24:40.998Z,7.95
2023-04-02T20:27:14.404Z,8.07
2023-04-02T20:29:42.610Z,7.32
2023-04-02T20:32:15.902Z,8.95
2023-04-02T20:34:49.192Z,9.50
2023-04-02T20:37:17.310Z,10.18
2023-04-02T20:39:45.536Z,11.52
2023-04-02T20:42:14.300Z,9.45
2023-04-02T20:44:42.688Z,10.55
2023-04-02T20:47:11.117Z,8.35
2023-04-02T20:49:39.264Z,7.95
2023-04-02T20:52:09.300Z,9.38
2023-04-02T20:54:37.660Z,10.63
2023-04-02T20:57:06.376Z,7.63
2023-04-02T20:59:36.865Z,6.15
2023-04-02T21:02:04.983Z,5.75
2023-04-02T21:04:33.099Z,5.72
2023-04-02T21:07:03.969Z,6.18
2023-04-02T21:09:33.560Z,7.97
2023-04-02T21:12:01.610Z,6.00
2023-04-02T21:14:36.202Z,5.63
2023-04-02T21:17:04.396Z,9.93
2023-04-02T21:19:32.816Z,7.63
2023-04-02T21:22:01.047Z,5.13
2023-04-02T21:24:29.103Z,8.57
2023-04-02T21:26:58.523Z,8.95
2023-04-02T21:29:26.625Z,5.10
2023-04-02T21:31:58.613Z,5.57
2023-04-02T21:34:27.991Z,4.78
2023-04-02T21:36:56.664Z,5.97
2023-04-02T21:39:25.393Z,4.90
2023-04-02T21:41:54.875Z,4.13
2023-04-02T21:44:24.894Z,5.10
2023-04-02T21:46:54.261Z,5.72
2023-04-02T21:49:23.947Z,4.35
2023-04-02T21:51:54.759Z,8.23
2023-04-02T21:54:23.091Z,5.13
2023-04-02T21:56:51.586Z,8.48
2023-04-02T21:59:20.048Z,4.97
2023-04-02T22:01:52.075Z,5.38
2023-04-02T22:04:22.473Z,4.80
2023-04-02T22:06:52.283Z,6.35
2023-04-02T22:09:22.585Z,5.68
2023-04-02T22:11:58.797Z,5.45
2023-04-02T22:14:27.824Z,3.53
2023-04-02T22:16:58.804Z,5.30
2023-04-02T22:19:27.836Z,7.72
2023-04-02T22:21:56.576Z,6.45
2023-04-02T22:24:25.277Z,5.65
2023-04-02T22:26:53.688Z,4.97
2023-04-02T22:29:22.051Z,5.25
2023-04-02T22:31:53.215Z,3.58
2023-04-02T22:34:22.711Z,5.22
2023-04-02T22:36:50.775Z,3.92
2023-04-02T22:39:18.971Z,4.50
2023-04-02T22:41:47.070Z,6.40
2023-04-02T22:44:17.081Z,6.95
2023-04-02T22:46:45.468Z,4.07
2023-04-02T22:49:19.184Z,4.78
2023-04-02T22:51:49.040Z,4.70
2023-04-02T22:54:17.436Z,6.80
2023-04-02T22:56:45.518Z,5.07
2023-04-02T22:59:13.808Z,5.90
2023-04-02T23:01:41.998Z,4.55
2023-04-02T23:04:10.403Z,3.20
2023-04-02T23:06:38.523Z,4.80
2023-04-02T23:09:08.102Z,4.85
2023-04-02T23:11:36.409Z,4.88
2023-04-02T23:14:07.327Z,4.72
2023-04-02T23:16:35.542Z,5.43
2023-04-02T23:19:03.880Z,6.03
2023-04-02T23:21:32.031Z,4.75
2023-04-02T23:24:00.158Z,8.15
2023-04-02T23:26:31.825Z,3.63
2023-04-02T23:29:00.755Z,7.50
2023-04-02T23:31:29.326Z,4.63
2023-04-02T23:33:57.343Z,5.82
2023-04-02T23:36:27.860Z,3.70
2023-04-02T23:38:58.008Z,4.53
2023-04-02T23:41:27.811Z,5.20
2023-04-02T23:43:58.604Z,6.38
2023-04-02T23:46:26.989Z,4.20
2023-04-02T23:48:55.941Z,4.80
2023-04-02T23:51:24.493Z,5.47
2023-04-02T23:53:55.350Z,7.10
2023-04-02T23:56:24.106Z,5.22
2023-04-02T23:58:52.175Z,4.45
